sensor_id;sensor_type;location;lat;lon;timestamp;temperature;humidity
69382;DHT22;56560;50.692;12.844;2022-12-18T00:00:42;-12.40;81.60
69382;DHT22;56560;50.692;12.844;2022-12-18T00:03:08;-12.30;81.20
69382;DHT22;56560;50.692;12.844;2022-12-18T00:05:33;-12.40;81.00
69382;DHT22;56560;50.692;12.844;2022-12-18T00:07:59;-12.30;81.00
69382;DHT22;56560;50.692;12.844;2022-12-18T00:10:25;-12.40;81.10
69382;DHT22;56560;50.692;12.844;2022-12-18T00:12:50;-12.40;81.30
69382;DHT22;56560;50.692;12.844;2022-12-18T00:15:16;-12.40;80.80
69382;DHT22;56560;50.692;12.844;2022-12-18T00:17:41;-12.50;80.80
69382;DHT22;56560;50.692;12.844;2022-12-18T00:20:08;-12.50;81.00
69382;DHT22;56560;50.692;12.844;2022-12-18T00:22:33;-12.50;81.10
69382;DHT22;56560;50.692;12.844;2022-12-18T00:24:59;-12.50;80.60
69382;DHT22;56560;50.692;12.844;2022-12-18T00:27:25;-12.60;80.10
69382;DHT22;56560;50.692;12.844;2022-12-18T00:29:51;-12.60;79.70
69382;DHT22;56560;50.692;12.844;2022-12-18T00:32:16;-12.60;79.90
69382;DHT22;56560;50.692;12.844;2022-12-18T00:34:42;-12.70;80.00
69382;DHT22;56560;50.692;12.844;2022-12-18T00:37:07;-12.70;80.20
69382;DHT22;56560;50.692;12.844;2022-12-18T00:39:33;-12.70;79.90
69382;DHT22;56560;50.692;12.844;2022-12-18T00:41:59;-12.70;79.90
69382;DHT22;56560;50.692;12.844;2022-12-18T00:44:43;-12.80;80.20
69382;DHT22;56560;50.692;12.844;2022-12-18T00:47:08;-12.80;79.60
69382;DHT22;56560;50.692;12.844;2022-12-18T00:49:34;-12.80;78.70
69382;DHT22;56560;50.692;12.844;2022-12-18T00:51:59;-12.90;79.10
69382;DHT22;56560;50.692;12.844;2022-12-18T00:54:25;-12.90;79.00
69382;DHT22;56560;50.692;12.844;2022-12-18T00:56:51;-12.90;79.40
69382;DHT22;56560;50.692;12.844;2022-12-18T00:59:18;-12.90;79.60
69382;DHT22;56560;50.692;12.844;2022-12-18T01:01:44;-12.90;79.70
69382;DHT22;56560;50.692;12.844;2022-12-18T01:04:10;-13.00;79.50
69382;DHT22;56560;50.692;12.844;2022-12-18T01:06:35;-13.00;79.20
69382;DHT22;56560;50.692;12.844;2022-12-18T01:09:01;-13.00;79.30
69382;DHT22;56560;50.692;12.844;2022-12-18T01:11:27;-13.10;79.60
69382;DHT22;56560;50.692;12.844;2022-12-18T01:13:54;-13.00;79.70
69382;DHT22;56560;50.692;12.844;2022-12-18T01:16:20;-13.00;80.00
69382;DHT22;56560;50.692;12.844;2022-12-18T01:18:45;-13.00;79.90
69382;DHT22;56560;50.692;12.844;2022-12-18T01:21:15;-13.00;79.40
69382;DHT22;56560;50.692;12.844;2022-12-18T01:23:41;-13.00;78.30
69382;DHT22;56560;50.692;12.844;2022-12-18T01:26:13;-13.10;78.30
69382;DHT22;56560;50.692;12.844;2022-12-18T01:28:39;-13.20;78.70
69382;DHT22;56560;50.692;12.844;2022-12-18T01:31:20;-13.30;78.70
69382;DHT22;56560;50.692;12.844;2022-12-18T01:33:50;-13.20;78.80
69382;DHT22;56560;50.692;12.844;2022-12-18T01:36:31;-13.30;78.70
69382;DHT22;56560;50.692;12.844;2022-12-18T01:39:01;-13.20;78.70
69382;DHT22;56560;50.692;12.844;2022-12-18T01:41:29;-13.30;78.80
69382;DHT22;56560;50.692;12.844;2022-12-18T01:53:21;-13.40;80.10
69382;DHT22;56560;50.692;12.844;2022-12-18T01:55:58;-13.40;80.60
69382;DHT22;56560;50.692;12.844;2022-12-18T01:58:32;-13.40;80.50
69382;DHT22;56560;50.692;12.844;2022-12-18T02:01:01;-13.30;80.10
69382;DHT22;56560;50.692;12.844;2022-12-18T02:03:26;-13.40;79.80
69382;DHT22;56560;50.692;12.844;2022-12-18T02:08:30;-13.40;80.00
69382;DHT22;56560;50.692;12.844;2022-12-18T02:11:12;-13.40;80.00
69382;DHT22;56560;50.692;12.844;2022-12-18T02:16:28;-13.50;80.00
69382;DHT22;56560;50.692;12.844;2022-12-18T02:18:59;-13.50;79.60
69382;DHT22;56560;50.692;12.844;2022-12-18T02:27:26;-13.60;79.50
69382;DHT22;56560;50.692;12.844;2022-12-18T02:29:55;-13.60;79.50
69382;DHT22;56560;50.692;12.844;2022-12-18T02:32:27;-13.70;79.40
69382;DHT22;56560;50.692;12.844;2022-12-18T02:34:56;-13.70;79.90
69382;DHT22;56560;50.692;12.844;2022-12-18T02:37:23;-13.70;80.00
69382;DHT22;56560;50.692;12.844;2022-12-18T02:39:51;-13.60;79.90
69382;DHT22;56560;50.692;12.844;2022-12-18T02:42:18;-13.70;79.70
69382;DHT22;56560;50.692;12.844;2022-12-18T02:44:46;-13.70;79.30
69382;DHT22;56560;50.692;12.844;2022-12-18T02:47:14;-13.70;79.20
69382;DHT22;56560;50.692;12.844;2022-12-18T02:49:55;-13.70;79.10
69382;DHT22;56560;50.692;12.844;2022-12-18T03:03:22;-13.70;80.00
69382;DHT22;56560;50.692;12.844;2022-12-18T03:06:02;-13.80;80.10
69382;DHT22;56560;50.692;12.844;2022-12-18T03:08:33;-13.80;80.00
69382;DHT22;56560;50.692;12.844;2022-12-18T03:11:03;-13.80;79.40
69382;DHT22;56560;50.692;12.844;2022-12-18T03:13:34;-13.80;79.40
69382;DHT22;56560;50.692;12.844;2022-12-18T03:16:02;-13.70;79.30
69382;DHT22;56560;50.692;12.844;2022-12-18T03:18:37;-13.70;79.70
69382;DHT22;56560;50.692;12.844;2022-12-18T03:21:06;-13.70;78.90
69382;DHT22;56560;50.692;12.844;2022-12-18T03:23:36;-13.70;78.40
69382;DHT22;56560;50.692;12.844;2022-12-18T03:26:08;-13.70;78.30
69382;DHT22;56560;50.692;12.844;2022-12-18T03:28:39;-13.80;78.30
69382;DHT22;56560;50.692;12.844;2022-12-18T03:31:10;-13.80;78.50
69382;DHT22;56560;50.692;12.844;2022-12-18T03:34:04;-13.90;78.80
69382;DHT22;56560;50.692;12.844;2022-12-18T03:36:30;-13.90;78.60
69382;DHT22;56560;50.692;12.844;2022-12-18T03:38:59;-13.90;78.50
69382;DHT22;56560;50.692;12.844;2022-12-18T03:41:51;-14.00;78.80
69382;DHT22;56560;50.692;12.844;2022-12-18T03:46:59;-14.00;78.40
69382;DHT22;56560;50.692;12.844;2022-12-18T03:49:39;-14.00;78.50
69382;DHT22;56560;50.692;12.844;2022-12-18T03:52:16;-14.00;78.70
69382;DHT22;56560;50.692;12.844;2022-12-18T03:54:44;-14.10;78.70
69382;DHT22;56560;50.692;12.844;2022-12-18T03:57:15;-14.10;79.00
69382;DHT22;56560;50.692;12.844;2022-12-18T03:59:43;-14.20;78.90
69382;DHT22;56560;50.692;12.844;2022-12-18T04:02:09;-14.20;78.40
69382;DHT22;56560;50.692;12.844;2022-12-18T04:04:39;-14.20;78.80
69382;DHT22;56560;50.692;12.844;2022-12-18T04:07:06;-14.20;79.10
69382;DHT22;56560;50.692;12.844;2022-12-18T04:09:34;-14.20;79.40
69382;DHT22;56560;50.692;12.844;2022-12-18T04:12:00;-14.20;78.60
69382;DHT22;56560;50.692;12.844;2022-12-18T04:14:26;-14.20;77.40
69382;DHT22;56560;50.692;12.844;2022-12-18T04:16:51;-14.20;77.10
69382;DHT22;56560;50.692;12.844;2022-12-18T04:19:17;-14.30;77.40
69382;DHT22;56560;50.692;12.844;2022-12-18T04:21:43;-14.40;77.80
69382;DHT22;56560;50.692;12.844;2022-12-18T04:24:08;-14.40;77.90
69382;DHT22;56560;50.692;12.844;2022-12-18T04:26:34;-14.40;78.10
69382;DHT22;56560;50.692;12.844;2022-12-18T04:29:00;-14.40;78.40
69382;DHT22;56560;50.692;12.844;2022-12-18T04:31:26;-14.40;78.30
69382;DHT22;56560;50.692;12.844;2022-12-18T04:33:51;-14.40;78.60
69382;DHT22;56560;50.692;12.844;2022-12-18T04:36:17;-14.40;78.80
69382;DHT22;56560;50.692;12.844;2022-12-18T04:38:43;-14.40;79.10
69382;DHT22;56560;50.692;12.844;2022-12-18T04:41:08;-14.40;79.50
69382;DHT22;56560;50.692;12.844;2022-12-18T04:43:34;-14.40;79.20
69382;DHT22;56560;50.692;12.844;2022-12-18T04:46:07;-14.40;78.90
69382;DHT22;56560;50.692;12.844;2022-12-18T04:48:33;-14.50;79.30
69382;DHT22;56560;50.692;12.844;2022-12-18T04:50:59;-14.50;78.80
69382;DHT22;56560;50.692;12.844;2022-12-18T04:53:25;-14.40;78.70
69382;DHT22;56560;50.692;12.844;2022-12-18T04:55:51;-14.40;78.50
69382;DHT22;56560;50.692;12.844;2022-12-18T04:58:16;-14.40;78.30
69382;DHT22;56560;50.692;12.844;2022-12-18T05:00:42;-14.40;78.40
69382;DHT22;56560;50.692;12.844;2022-12-18T05:03:08;-14.40;77.70
69382;DHT22;56560;50.692;12.844;2022-12-18T05:05:37;-14.50;77.90
69382;DHT22;56560;50.692;12.844;2022-12-18T05:08:02;-14.50;78.50
69382;DHT22;56560;50.692;12.844;2022-12-18T05:10:28;-14.50;78.80
69382;DHT22;56560;50.692;12.844;2022-12-18T05:12:53;-14.50;78.60
69382;DHT22;56560;50.692;12.844;2022-12-18T05:15:29;-14.50;78.30
69382;DHT22;56560;50.692;12.844;2022-12-18T05:17:56;-14.60;79.10
69382;DHT22;56560;50.692;12.844;2022-12-18T05:20:22;-14.60;79.30
69382;DHT22;56560;50.692;12.844;2022-12-18T05:22:48;-14.50;79.20
69382;DHT22;56560;50.692;12.844;2022-12-18T05:25:14;-14.50;78.70
69382;DHT22;56560;50.692;12.844;2022-12-18T05:27:40;-14.50;78.00
69382;DHT22;56560;50.692;12.844;2022-12-18T05:30:06;-14.60;77.40
69382;DHT22;56560;50.692;12.844;2022-12-18T05:32:32;-14.60;77.20
69382;DHT22;56560;50.692;12.844;2022-12-18T05:34:58;-14.60;77.60
69382;DHT22;56560;50.692;12.844;2022-12-18T05:37:23;-14.60;77.90
69382;DHT22;56560;50.692;12.844;2022-12-18T05:39:49;-14.60;78.20
69382;DHT22;56560;50.692;12.844;2022-12-18T05:42:14;-14.70;78.00
69382;DHT22;56560;50.692;12.844;2022-12-18T05:44:40;-14.70;78.40
69382;DHT22;56560;50.692;12.844;2022-12-18T05:47:06;-14.70;78.40
69382;DHT22;56560;50.692;12.844;2022-12-18T05:49:31;-14.70;78.40
69382;DHT22;56560;50.692;12.844;2022-12-18T05:51:57;-14.70;78.50
69382;DHT22;56560;50.692;12.844;2022-12-18T05:54:23;-14.80;78.70
69382;DHT22;56560;50.692;12.844;2022-12-18T05:56:48;-14.70;79.10
69382;DHT22;56560;50.692;12.844;2022-12-18T05:59:14;-14.80;79.00
69382;DHT22;56560;50.692;12.844;2022-12-18T06:01:39;-14.70;78.70
69382;DHT22;56560;50.692;12.844;2022-12-18T06:04:06;-14.70;79.30
69382;DHT22;56560;50.692;12.844;2022-12-18T06:06:31;-14.70;79.50
69382;DHT22;56560;50.692;12.844;2022-12-18T06:08:57;-14.80;79.20
69382;DHT22;56560;50.692;12.844;2022-12-18T06:11:25;-14.80;78.90
69382;DHT22;56560;50.692;12.844;2022-12-18T06:13:52;-14.80;78.40
69382;DHT22;56560;50.692;12.844;2022-12-18T06:16:18;-14.80;77.90
69382;DHT22;56560;50.692;12.844;2022-12-18T06:18:44;-14.90;77.60
69382;DHT22;56560;50.692;12.844;2022-12-18T06:21:10;-14.90;77.40
69382;DHT22;56560;50.692;12.844;2022-12-18T06:23:35;-14.90;77.50
69382;DHT22;56560;50.692;12.844;2022-12-18T06:26:10;-15.00;77.60
69382;DHT22;56560;50.692;12.844;2022-12-18T06:28:36;-15.00;78.00
69382;DHT22;56560;50.692;12.844;2022-12-18T06:31:03;-15.10;78.60
69382;DHT22;56560;50.692;12.844;2022-12-18T06:33:29;-15.10;78.90
69382;DHT22;56560;50.692;12.844;2022-12-18T06:36:01;-15.00;78.40
69382;DHT22;56560;50.692;12.844;2022-12-18T06:38:27;-15.10;78.30
69382;DHT22;56560;50.692;12.844;2022-12-18T06:40:53;-15.10;78.40
69382;DHT22;56560;50.692;12.844;2022-12-18T06:43:18;-15.10;78.50
69382;DHT22;56560;50.692;12.844;2022-12-18T06:45:44;-15.10;79.00
69382;DHT22;56560;50.692;12.844;2022-12-18T06:48:10;-15.10;78.70
69382;DHT22;56560;50.692;12.844;2022-12-18T06:50:35;-15.10;79.20
69382;DHT22;56560;50.692;12.844;2022-12-18T06:53:01;-15.10;78.70
69382;DHT22;56560;50.692;12.844;2022-12-18T06:55:26;-15.10;78.50
69382;DHT22;56560;50.692;12.844;2022-12-18T06:57:52;-15.00;78.50
69382;DHT22;56560;50.692;12.844;2022-12-18T07:00:18;-15.00;78.10
69382;DHT22;56560;50.692;12.844;2022-12-18T07:02:43;-15.00;77.80
69382;DHT22;56560;50.692;12.844;2022-12-18T07:05:09;-15.00;77.30
69382;DHT22;56560;50.692;12.844;2022-12-18T07:07:35;-15.00;77.50
69382;DHT22;56560;50.692;12.844;2022-12-18T07:10:02;-15.00;77.90
69382;DHT22;56560;50.692;12.844;2022-12-18T07:12:27;-15.10;76.80
69382;DHT22;56560;50.692;12.844;2022-12-18T07:14:53;-15.10;77.00
69382;DHT22;56560;50.692;12.844;2022-12-18T07:17:18;-15.10;77.70
69382;DHT22;56560;50.692;12.844;2022-12-18T07:19:44;-15.10;78.00
69382;DHT22;56560;50.692;12.844;2022-12-18T07:22:10;-15.10;77.80
69382;DHT22;56560;50.692;12.844;2022-12-18T07:24:36;-15.10;77.60
69382;DHT22;56560;50.692;12.844;2022-12-18T07:27:01;-15.10;77.30
69382;DHT22;56560;50.692;12.844;2022-12-18T07:29:27;-15.10;77.80
69382;DHT22;56560;50.692;12.844;2022-12-18T07:31:53;-15.10;78.00
69382;DHT22;56560;50.692;12.844;2022-12-18T07:34:18;-15.10;78.00
69382;DHT22;56560;50.692;12.844;2022-12-18T07:36:44;-15.00;78.50
69382;DHT22;56560;50.692;12.844;2022-12-18T07:39:11;-15.00;78.50
69382;DHT22;56560;50.692;12.844;2022-12-18T07:41:39;-14.90;77.60
69382;DHT22;56560;50.692;12.844;2022-12-18T07:44:11;-14.90;76.80
69382;DHT22;56560;50.692;12.844;2022-12-18T07:46:37;-14.90;77.30
69382;DHT22;56560;50.692;12.844;2022-12-18T07:49:03;-14.90;77.40
69382;DHT22;56560;50.692;12.844;2022-12-18T07:51:29;-14.80;77.40
69382;DHT22;56560;50.692;12.844;2022-12-18T07:53:54;-14.80;77.60
69382;DHT22;56560;50.692;12.844;2022-12-18T07:56:20;-14.80;78.00
69382;DHT22;56560;50.692;12.844;2022-12-18T07:58:46;-14.70;77.60
69382;DHT22;56560;50.692;12.844;2022-12-18T08:01:12;-14.60;77.30
69382;DHT22;56560;50.692;12.844;2022-12-18T08:03:39;-14.60;77.30
69382;DHT22;56560;50.692;12.844;2022-12-18T08:06:07;-14.60;77.40
69382;DHT22;56560;50.692;12.844;2022-12-18T08:08:34;-14.60;77.70
69382;DHT22;56560;50.692;12.844;2022-12-18T08:11:00;-14.40;77.10
69382;DHT22;56560;50.692;12.844;2022-12-18T08:13:26;-14.40;76.30
69382;DHT22;56560;50.692;12.844;2022-12-18T08:15:56;-14.40;75.80
69382;DHT22;56560;50.692;12.844;2022-12-18T08:18:22;-14.40;75.70
69382;DHT22;56560;50.692;12.844;2022-12-18T08:20:48;-14.30;75.40
69382;DHT22;56560;50.692;12.844;2022-12-18T08:23:14;-14.20;75.70
69382;DHT22;56560;50.692;12.844;2022-12-18T08:25:39;-14.10;75.70
69382;DHT22;56560;50.692;12.844;2022-12-18T08:28:05;-14.00;75.90
69382;DHT22;56560;50.692;12.844;2022-12-18T08:30:30;-13.90;75.70
69382;DHT22;56560;50.692;12.844;2022-12-18T08:32:56;-13.80;75.70
69382;DHT22;56560;50.692;12.844;2022-12-18T08:35:22;-13.70;75.70
69382;DHT22;56560;50.692;12.844;2022-12-18T08:37:47;-13.60;75.70
69382;DHT22;56560;50.692;12.844;2022-12-18T08:40:13;-13.50;76.30
69382;DHT22;56560;50.692;12.844;2022-12-18T08:42:39;-13.30;76.70
69382;DHT22;56560;50.692;12.844;2022-12-18T08:45:24;-13.20;77.20
69382;DHT22;56560;50.692;12.844;2022-12-18T08:47:50;-12.90;77.00
69382;DHT22;56560;50.692;12.844;2022-12-18T08:50:15;-12.70;76.70
69382;DHT22;56560;50.692;12.844;2022-12-18T08:52:44;-12.60;76.00
69382;DHT22;56560;50.692;12.844;2022-12-18T08:55:13;-12.50;76.50
69382;DHT22;56560;50.692;12.844;2022-12-18T08:57:38;-12.30;77.30
69382;DHT22;56560;50.692;12.844;2022-12-18T09:00:04;-12.00;77.10
69382;DHT22;56560;50.692;12.844;2022-12-18T09:02:30;-11.80;76.40
69382;DHT22;56560;50.692;12.844;2022-12-18T09:04:56;-11.70;76.60
69382;DHT22;56560;50.692;12.844;2022-12-18T09:07:21;-11.50;76.60
69382;DHT22;56560;50.692;12.844;2022-12-18T09:09:47;-11.40;75.40
69382;DHT22;56560;50.692;12.844;2022-12-18T09:12:13;-11.30;75.70
69382;DHT22;56560;50.692;12.844;2022-12-18T09:14:38;-11.10;75.90
69382;DHT22;56560;50.692;12.844;2022-12-18T09:17:04;-10.90;75.90
69382;DHT22;56560;50.692;12.844;2022-12-18T09:19:30;-10.80;75.70
69382;DHT22;56560;50.692;12.844;2022-12-18T09:21:55;-10.60;75.30
69382;DHT22;56560;50.692;12.844;2022-12-18T09:24:22;-10.40;75.40
69382;DHT22;56560;50.692;12.844;2022-12-18T09:26:48;-10.20;75.30
69382;DHT22;56560;50.692;12.844;2022-12-18T09:29:14;-10.10;75.40
69382;DHT22;56560;50.692;12.844;2022-12-18T09:31:40;-9.90;75.80
69382;DHT22;56560;50.692;12.844;2022-12-18T09:34:06;-9.80;76.40
69382;DHT22;56560;50.692;12.844;2022-12-18T09:36:32;-9.50;76.00
69382;DHT22;56560;50.692;12.844;2022-12-18T09:38:58;-9.30;75.60
69382;DHT22;56560;50.692;12.844;2022-12-18T09:46:53;-9.10;77.00
69382;DHT22;56560;50.692;12.844;2022-12-18T09:49:23;-8.90;77.50
69382;DHT22;56560;50.692;12.844;2022-12-18T09:51:56;-8.70;77.00
69382;DHT22;56560;50.692;12.844;2022-12-18T09:54:37;-8.40;75.60
69382;DHT22;56560;50.692;12.844;2022-12-18T09:57:04;-8.20;75.50
69382;DHT22;56560;50.692;12.844;2022-12-18T09:59:37;-8.00;74.50
69382;DHT22;56560;50.692;12.844;2022-12-18T10:02:17;-7.80;73.90
69382;DHT22;56560;50.692;12.844;2022-12-18T10:04:43;-7.70;75.10
69382;DHT22;56560;50.692;12.844;2022-12-18T10:08:10;-7.50;75.20
69382;DHT22;56560;50.692;12.844;2022-12-18T10:13:16;-7.10;76.50
69382;DHT22;56560;50.692;12.844;2022-12-18T10:15:58;-6.90;75.40
69382;DHT22;56560;50.692;12.844;2022-12-18T10:21:18;-6.60;75.20
69382;DHT22;56560;50.692;12.844;2022-12-18T10:24:32;-6.40;75.20
69382;DHT22;56560;50.692;12.844;2022-12-18T10:26:32;-6.30;75.10
69382;DHT22;56560;50.692;12.844;2022-12-18T10:28:58;-6.10;75.40
69382;DHT22;56560;50.692;12.844;2022-12-18T10:31:25;-6.00;75.40
69382;DHT22;56560;50.692;12.844;2022-12-18T10:33:51;-5.90;74.90
69382;DHT22;56560;50.692;12.844;2022-12-18T10:36:16;-5.70;74.40
69382;DHT22;56560;50.692;12.844;2022-12-18T10:38:42;-5.60;74.50
69382;DHT22;56560;50.692;12.844;2022-12-18T10:43:43;-5.30;73.90
69382;DHT22;56560;50.692;12.844;2022-12-18T10:51:22;-4.90;73.60
69382;DHT22;56560;50.692;12.844;2022-12-18T10:53:54;-4.80;74.20
69382;DHT22;56560;50.692;12.844;2022-12-18T10:56:20;-4.70;74.10
69382;DHT22;56560;50.692;12.844;2022-12-18T10:59:14;-4.60;73.90
69382;DHT22;56560;50.692;12.844;2022-12-18T11:01:53;-4.60;74.20
69382;DHT22;56560;50.692;12.844;2022-12-18T11:04:22;-4.50;74.50
69382;DHT22;56560;50.692;12.844;2022-12-18T11:07:04;-4.30;74.40
69382;DHT22;56560;50.692;12.844;2022-12-18T11:09:32;-4.20;73.60
69382;DHT22;56560;50.692;12.844;2022-12-18T11:12:00;-4.10;73.70
69382;DHT22;56560;50.692;12.844;2022-12-18T11:14:49;-4.10;74.00
69382;DHT22;56560;50.692;12.844;2022-12-18T11:17:28;-4.10;74.60
69382;DHT22;56560;50.692;12.844;2022-12-18T11:20:24;-3.90;74.80
69382;DHT22;56560;50.692;12.844;2022-12-18T11:23:04;-3.80;74.60
69382;DHT22;56560;50.692;12.844;2022-12-18T11:25:32;-3.70;74.90
69382;DHT22;56560;50.692;12.844;2022-12-18T11:28:04;-3.50;74.30
69382;DHT22;56560;50.692;12.844;2022-12-18T11:30:39;-3.40;73.40
69382;DHT22;56560;50.692;12.844;2022-12-18T11:35:46;-3.10;73.50
69382;DHT22;56560;50.692;12.844;2022-12-18T11:38:20;-2.60;72.60
69382;DHT22;56560;50.692;12.844;2022-12-18T11:40:56;-1.90;70.20
69382;DHT22;56560;50.692;12.844;2022-12-18T11:46:14;-0.40;67.80
69382;DHT22;56560;50.692;12.844;2022-12-18T11:48:54;0.50;63.50
69382;DHT22;56560;50.692;12.844;2022-12-18T11:51:32;1.30;60.70
69382;DHT22;56560;50.692;12.844;2022-12-18T11:54:00;2.00;60.50
69382;DHT22;56560;50.692;12.844;2022-12-18T11:59:37;2.80;56.00
69382;DHT22;56560;50.692;12.844;2022-12-18T12:02:29;3.10;56.00
69382;DHT22;56560;50.692;12.844;2022-12-18T12:05:04;3.40;54.30
69382;DHT22;56560;50.692;12.844;2022-12-18T12:26:30;2.40;55.30
69382;DHT22;56560;50.692;12.844;2022-12-18T12:35:10;2.40;57.30
69382;DHT22;56560;50.692;12.844;2022-12-18T12:40:54;3.20;55.30
69382;DHT22;56560;50.692;12.844;2022-12-18T12:43:41;4.00;53.50
69382;DHT22;56560;50.692;12.844;2022-12-18T12:46:13;4.80;52.70
69382;DHT22;56560;50.692;12.844;2022-12-18T12:53:57;6.20;49.10
69382;DHT22;56560;50.692;12.844;2022-12-18T12:56:34;6.30;46.70
69382;DHT22;56560;50.692;12.844;2022-12-18T12:59:04;6.50;46.00
69382;DHT22;56560;50.692;12.844;2022-12-18T13:04:44;7.00;44.20
69382;DHT22;56560;50.692;12.844;2022-12-18T13:07:28;6.70;43.80
69382;DHT22;56560;50.692;12.844;2022-12-18T13:13:09;6.50;42.40
69382;DHT22;56560;50.692;12.844;2022-12-18T13:18:21;5.50;42.90
69382;DHT22;56560;50.692;12.844;2022-12-18T13:31:15;2.70;48.40
69382;DHT22;56560;50.692;12.844;2022-12-18T13:34:25;2.50;48.20
69382;DHT22;56560;50.692;12.844;2022-12-18T13:36:53;1.80;49.30
69382;DHT22;56560;50.692;12.844;2022-12-18T13:41:49;0.90;51.60
69382;DHT22;56560;50.692;12.844;2022-12-18T13:44:51;0.60;52.60
69382;DHT22;56560;50.692;12.844;2022-12-18T13:47:32;0.20;53.60
69382;DHT22;56560;50.692;12.844;2022-12-18T13:49:59;0.00;53.80
69382;DHT22;56560;50.692;12.844;2022-12-18T13:52:33;-0.30;54.40
69382;DHT22;56560;50.692;12.844;2022-12-18T13:55:02;-0.60;55.90
69382;DHT22;56560;50.692;12.844;2022-12-18T13:57:29;-0.90;56.60
69382;DHT22;56560;50.692;12.844;2022-12-18T13:59:56;-1.10;57.00
69382;DHT22;56560;50.692;12.844;2022-12-18T14:02:25;-1.40;58.00
69382;DHT22;56560;50.692;12.844;2022-12-18T14:04:52;-1.70;59.30
69382;DHT22;56560;50.692;12.844;2022-12-18T14:07:23;-1.80;59.50
69382;DHT22;56560;50.692;12.844;2022-12-18T14:09:59;-1.90;59.80
69382;DHT22;56560;50.692;12.844;2022-12-18T14:12:33;-2.00;60.50
69382;DHT22;56560;50.692;12.844;2022-12-18T14:17:52;-2.30;62.30
69382;DHT22;56560;50.692;12.844;2022-12-18T14:20:19;-2.50;62.70
69382;DHT22;56560;50.692;12.844;2022-12-18T14:22:47;-2.60;63.00
69382;DHT22;56560;50.692;12.844;2022-12-18T14:25:20;-2.70;62.80
69382;DHT22;56560;50.692;12.844;2022-12-18T14:33:21;-3.10;62.60
69382;DHT22;56560;50.692;12.844;2022-12-18T14:35:57;-3.30;62.30
69382;DHT22;56560;50.692;12.844;2022-12-18T14:38:39;-3.40;63.40
69382;DHT22;56560;50.692;12.844;2022-12-18T14:41:16;-3.60;64.00
69382;DHT22;56560;50.692;12.844;2022-12-18T14:43:44;-3.60;64.80
69382;DHT22;56560;50.692;12.844;2022-12-18T14:49:14;-3.90;66.80
69382;DHT22;56560;50.692;12.844;2022-12-18T14:51:48;-4.00;67.90
69382;DHT22;56560;50.692;12.844;2022-12-18T14:54:17;-4.00;72.00
69382;DHT22;56560;50.692;12.844;2022-12-18T14:56:51;-4.10;70.50
69382;DHT22;56560;50.692;12.844;2022-12-18T14:59:25;-4.30;67.70
69382;DHT22;56560;50.692;12.844;2022-12-18T15:02:13;-4.50;71.70
69382;DHT22;56560;50.692;12.844;2022-12-18T15:04:41;-4.60;71.20
69382;DHT22;56560;50.692;12.844;2022-12-18T15:07:19;-4.80;71.70
69382;DHT22;56560;50.692;12.844;2022-12-18T15:10:14;-4.90;72.60
69382;DHT22;56560;50.692;12.844;2022-12-18T15:23:04;-5.50;71.60
69382;DHT22;56560;50.692;12.844;2022-12-18T15:25:36;-5.50;71.50
69382;DHT22;56560;50.692;12.844;2022-12-18T15:28:04;-5.50;71.50
69382;DHT22;56560;50.692;12.844;2022-12-18T15:33:30;-5.80;72.30
69382;DHT22;56560;50.692;12.844;2022-12-18T15:36:01;-5.80;72.30
69382;DHT22;56560;50.692;12.844;2022-12-18T15:38:27;-5.90;72.20
69382;DHT22;56560;50.692;12.844;2022-12-18T15:40:53;-5.90;72.80
69382;DHT22;56560;50.692;12.844;2022-12-18T15:43:23;-6.00;73.20
69382;DHT22;56560;50.692;12.844;2022-12-18T15:48:27;-5.90;73.10
69382;DHT22;56560;50.692;12.844;2022-12-18T15:50:54;-5.90;73.40
69382;DHT22;56560;50.692;12.844;2022-12-18T15:53:27;-6.00;74.60
69382;DHT22;56560;50.692;12.844;2022-12-18T15:55:54;-6.10;76.30
69382;DHT22;56560;50.692;12.844;2022-12-18T15:58:38;-6.00;75.90
69382;DHT22;56560;50.692;12.844;2022-12-18T16:01:03;-6.00;77.30
69382;DHT22;56560;50.692;12.844;2022-12-18T16:03:29;-5.90;78.40
69382;DHT22;56560;50.692;12.844;2022-12-18T16:05:55;-5.90;77.40
69382;DHT22;56560;50.692;12.844;2022-12-18T16:08:21;-5.80;75.80
69382;DHT22;56560;50.692;12.844;2022-12-18T16:10:46;-5.80;75.00
69382;DHT22;56560;50.692;12.844;2022-12-18T16:13:20;-5.80;74.50
69382;DHT22;56560;50.692;12.844;2022-12-18T16:15:46;-5.90;74.80
69382;DHT22;56560;50.692;12.844;2022-12-18T16:18:12;-6.00;74.80
69382;DHT22;56560;50.692;12.844;2022-12-18T16:20:38;-5.90;75.50
69382;DHT22;56560;50.692;12.844;2022-12-18T16:23:04;-6.00;75.00
69382;DHT22;56560;50.692;12.844;2022-12-18T16:25:30;-6.00;75.40
69382;DHT22;56560;50.692;12.844;2022-12-18T16:27:56;-6.10;75.90
69382;DHT22;56560;50.692;12.844;2022-12-18T16:30:25;-6.00;76.20
69382;DHT22;56560;50.692;12.844;2022-12-18T16:32:59;-6.00;76.10
69382;DHT22;56560;50.692;12.844;2022-12-18T16:35:26;-6.00;76.40
69382;DHT22;56560;50.692;12.844;2022-12-18T16:37:52;-6.10;76.20
69382;DHT22;56560;50.692;12.844;2022-12-18T16:40:18;-6.10;76.50
69382;DHT22;56560;50.692;12.844;2022-12-18T16:42:45;-6.10;76.40
69382;DHT22;56560;50.692;12.844;2022-12-18T16:45:14;-6.20;76.50
69382;DHT22;56560;50.692;12.844;2022-12-18T16:47:40;-6.20;76.70
69382;DHT22;56560;50.692;12.844;2022-12-18T16:50:06;-6.20;77.00
69382;DHT22;56560;50.692;12.844;2022-12-18T16:52:33;-6.30;77.30
69382;DHT22;56560;50.692;12.844;2022-12-18T16:54:59;-6.30;78.80
69382;DHT22;56560;50.692;12.844;2022-12-18T16:57:24;-6.20;77.80
69382;DHT22;56560;50.692;12.844;2022-12-18T16:59:50;-6.30;77.70
69382;DHT22;56560;50.692;12.844;2022-12-18T17:02:21;-6.20;78.40
69382;DHT22;56560;50.692;12.844;2022-12-18T17:04:48;-6.20;77.30
69382;DHT22;56560;50.692;12.844;2022-12-18T17:07:14;-6.20;77.10
69382;DHT22;56560;50.692;12.844;2022-12-18T17:09:40;-6.30;77.20
69382;DHT22;56560;50.692;12.844;2022-12-18T17:12:06;-6.20;77.80
69382;DHT22;56560;50.692;12.844;2022-12-18T17:14:33;-6.20;77.50
69382;DHT22;56560;50.692;12.844;2022-12-18T17:16:59;-6.20;78.10
69382;DHT22;56560;50.692;12.844;2022-12-18T17:19:25;-6.20;77.60
69382;DHT22;56560;50.692;12.844;2022-12-18T17:21:51;-6.20;77.60
69382;DHT22;56560;50.692;12.844;2022-12-18T17:24:18;-6.10;77.50
69382;DHT22;56560;50.692;12.844;2022-12-18T17:26:44;-6.10;77.00
69382;DHT22;56560;50.692;12.844;2022-12-18T17:29:13;-6.00;77.10
69382;DHT22;56560;50.692;12.844;2022-12-18T17:31:39;-6.00;76.70
69382;DHT22;56560;50.692;12.844;2022-12-18T17:34:05;-6.00;76.80
69382;DHT22;56560;50.692;12.844;2022-12-18T17:36:31;-5.90;76.70
69382;DHT22;56560;50.692;12.844;2022-12-18T17:38:59;-5.90;76.50
69382;DHT22;56560;50.692;12.844;2022-12-18T17:41:26;-5.90;76.70
69382;DHT22;56560;50.692;12.844;2022-12-18T17:44:00;-5.80;76.30